Time;durP1;ratioP1;P1;durP2;ratioP2;P2;SDS_P1;SDS_P2;PMS_P1;PMS_P2;Temp;Humidity;BMP_temperature;BMP_pressure;BME280_temperature;BME280_humidity;BME280_pressure;Samples;Min_cycle;Max_cycle;Signal;HPM_P1;HPM_P2
2022/04/11 12:57:38;;;;;;;7.97;2.47;;;;;;;4.95;72.34;98824.75;6215652;22;1958599;-67
2022/04/11 13:00:16;;;;;;;6.30;3.50;;;;;;;5.03;72.33;98833.06;6252974;23;20034;-66
2022/04/11 13:02:44;;;;;;;8.80;2.95;;;;;;;5.02;72.38;98841.66;6253327;22;20020;-68
2022/04/11 13:05:15;;;;;;;6.07;2.83;;;;;;;5.05;72.01;98836.34;6253895;22;20064;-68
2022/04/11 13:07:58;;;;;;;5.97;2.83;;;;;;;5.09;72.28;98856.63;6253278;22;20074;-67
2022/04/11 13:10:27;;;;;;;9.63;3.72;;;;;;;5.15;72.03;98863.63;6253016;22;20026;-67
2022/04/11 13:12:56;;;;;;;6.45;3.00;;;;;;;5.18;72.26;98837.41;6253192;22;20351;-68
2022/04/11 13:15:23;;;;;;;7.18;3.92;;;;;;;5.10;72.63;98777.50;6253026;22;20077;-63
2022/04/11 13:20:38;;;;;;;9.18;3.75;;;;;;;4.73;73.50;98701.56;6252822;23;20111;-62
2022/04/11 13:23:06;;;;;;;9.55;3.35;;;;;;;4.73;73.23;98745.66;6252928;22;20347;-63
2022/04/11 13:25:33;;;;;;;12.70;3.80;;;;;;;4.80;73.06;98757.03;6252307;22;20024;-64
2022/04/11 13:28:22;;;;;;;6.32;3.70;;;;;;;4.95;72.86;98770.41;6252773;23;20019;-63
2022/04/11 13:30:51;;;;;;;7.95;3.55;;;;;;;5.07;72.76;98762.38;6252908;22;20103;-63
2022/04/11 13:33:18;;;;;;;9.02;3.55;;;;;;;5.16;72.88;98765.22;6253159;22;20350;-63
2022/04/11 13:35:46;;;;;;;5.40;3.13;;;;;;;5.04;72.57;98779.56;6251239;23;20121;-63
2022/04/11 13:38:13;;;;;;;4.70;2.30;;;;;;;5.01;73.34;98763.66;6253180;22;20027;-62
2022/04/11 13:40:40;;;;;;;8.52;3.22;;;;;;;4.97;73.27;98761.84;6252248;22;20020;-65
2022/04/11 13:43:08;;;;;;;9.40;3.08;;;;;;;5.07;73.17;98759.63;6245719;22;20467;-65
2022/04/11 13:45:37;;;;;;;;;;;;;;;5.01;73.06;98769.16;6246368;22;20023;-63
2022/04/11 13:48:04;;;;;;;10.48;3.00;;;;;;;5.02;73.32;98757.03;6245610;22;19920;-63
2022/04/11 13:50:31;;;;;;;10.90;3.25;;;;;;;5.08;72.97;98755.75;6245509;23;20020;-63
2022/04/11 13:52:58;;;;;;;7.03;3.47;;;;;;;5.18;73.07;98740.91;6245752;23;20024;-64
2022/04/11 13:55:25;;;;;;;8.63;3.05;;;;;;;5.20;72.63;98761.50;6245838;22;20024;-64
2022/04/11 13:57:52;;;;;;;7.72;2.67;;;;;;;5.15;72.37;98808.50;6245174;22;20115;-63
2022/04/11 14:00:19;;;;;;;4.82;2.22;;;;;;;5.12;72.64;98814.63;6245966;23;20047;-63
2022/04/11 14:02:47;;;;;;;4.65;2.20;;;;;;;5.10;73.03;98756.25;6245641;22;20157;-62
2022/04/11 14:05:15;;;;;;;4.70;2.63;;;;;;;5.09;73.16;98760.13;6245529;22;20027;-64
2022/04/11 14:07:42;;;;;;;8.02;2.67;;;;;;;5.15;73.42;98814.00;6245512;23;20028;-63
2022/04/11 14:10:13;;;;;;;4.78;2.25;;;;;;;5.28;72.98;98777.28;6245981;22;20055;-64
2022/04/11 14:12:40;;;;;;;10.27;4.05;;;;;;;5.23;72.90;98763.63;6245392;22;20034;-65
2022/04/11 14:15:08;;;;;;;10.52;3.05;;;;;;;5.28;73.18;98752.47;6246194;22;20477;-64
2022/04/11 14:17:36;;;;;;;6.63;2.88;;;;;;;5.25;72.85;98733.81;6245279;22;20031;-64
2022/04/11 14:20:03;;;;;;;3.05;2.03;;;;;;;5.27;72.59;98744.53;6245586;22;20447;-63
2022/04/11 14:22:30;;;;;;;3.92;2.63;;;;;;;5.11;73.12;98746.88;6244313;23;20028;-63
2022/04/11 14:24:57;;;;;;;5.55;2.15;;;;;;;4.93;74.11;98761.69;6245929;22;20082;-64
2022/04/11 14:27:24;;;;;;;5.15;2.20;;;;;;;4.91;73.92;98744.63;6245521;22;20347;-63
2022/04/11 14:30:12;;;;;;;5.28;2.30;;;;;;;4.91;73.88;98736.38;6245778;22;20475;-63
2022/04/11 14:32:39;;;;;;;7.28;2.50;;;;;;;5.02;73.87;98712.94;6245698;23;20051;-64
2022/04/11 14:35:06;;;;;;;7.75;2.15;;;;;;;5.02;73.20;98712.94;6245748;22;20325;-64
2022/04/11 14:37:34;;;;;;;3.30;2.15;;;;;;;4.98;73.78;98714.66;6245336;22;20024;-63
2022/04/11 14:40:01;;;;;;;5.05;2.65;;;;;;;4.97;73.47;98707.53;6245816;22;20458;-65
2022/04/11 14:42:28;;;;;;;4.53;2.58;;;;;;;4.91;73.78;98714.31;6245303;22;20024;-64
2022/04/11 14:44:55;;;;;;;5.95;3.10;;;;;;;4.80;74.48;98712.94;6245739;22;20024;-63
2022/04/11 14:47:24;;;;;;;6.93;3.20;;;;;;;4.72;73.86;98722.00;6244886;22;20066;-63
2022/04/11 14:49:51;;;;;;;12.02;3.78;;;;;;;4.68;73.99;98731.22;6245020;23;20020;-63
2022/04/11 14:52:22;;;;;;;6.68;3.28;;;;;;;4.56;74.87;98734.50;6244806;22;20106;-63
2022/04/11 14:54:55;;;;;;;4.22;3.00;;;;;;;4.51;74.13;98753.94;6245023;22;20020;-64
2022/04/11 14:57:22;;;;;;;9.63;4.20;;;;;;;4.58;74.65;98765.31;6244855;22;20817;-64
2022/04/11 14:59:49;;;;;;;5.88;3.63;;;;;;;4.62;73.99;98774.56;6245538;23;20028;-65
2022/04/11 15:02:16;;;;;;;4.13;3.40;;;;;;;4.69;74.49;98793.44;6245766;22;20027;-71
2022/04/11 15:04:43;;;;;;;5.03;3.90;;;;;;;4.68;74.60;98792.59;6245316;22;20020;-69
2022/04/11 15:07:10;;;;;;;7.47;4.05;;;;;;;4.68;74.30;98800.88;6246038;22;20023;-72
2022/04/11 15:09:37;;;;;;;6.97;3.92;;;;;;;4.75;73.52;98819.72;6245245;22;20024;-71
2022/04/11 15:12:05;;;;;;;6.43;3.53;;;;;;;4.57;74.62;98823.47;6245530;22;20351;-71
2022/04/11 15:14:32;;;;;;;7.40;4.43;;;;;;;4.57;74.44;98824.28;6245286;22;20439;-70
2022/04/11 15:16:59;;;;;;;6.93;3.85;;;;;;;4.51;74.41;98831.03;6244144;22;20027;-64
2022/04/11 15:19:26;;;;;;;6.28;4.28;;;;;;;4.47;74.57;98830.00;6243210;23;20078;-63
2022/04/11 15:21:54;;;;;;;5.90;4.38;;;;;;;4.45;74.47;98837.78;6244987;22;20107;-63
2022/04/11 15:24:21;;;;;;;5.78;4.15;;;;;;;4.50;74.18;98845.13;6244893;22;20062;-64
2022/04/11 15:26:48;;;;;;;7.63;4.30;;;;;;;4.43;74.79;98850.22;6244836;23;20387;-63
2022/04/11 15:29:15;;;;;;;10.43;4.45;;;;;;;4.46;74.79;98860.63;6244770;22;20023;-64
2022/04/11 15:31:42;;;;;;;6.60;4.57;;;;;;;4.45;74.31;98859.81;6245048;22;20469;-65
2022/04/11 15:34:09;;;;;;;4.47;3.30;;;;;;;4.34;74.21;98852.91;6244232;23;20035;-63
2022/04/11 15:36:45;;;;;;;8.63;4.15;;;;;;;4.21;74.91;98848.25;6244807;22;20024;-64
2022/04/11 15:39:12;;;;;;;9.48;4.82;;;;;;;4.24;74.79;98847.63;6244663;22;20047;-64
2022/04/11 15:41:39;;;;;;;14.77;6.07;;;;;;;4.27;75.39;98846.19;6244690;22;20031;-64
2022/04/11 15:44:07;;;;;;;5.82;4.05;;;;;;;4.33;74.47;98845.78;6244665;23;20447;-63
2022/04/11 15:46:34;;;;;;;7.80;5.28;;;;;;;4.40;74.75;98850.84;6244992;23;20031;-63
2022/04/11 15:49:01;;;;;;;7.05;4.40;;;;;;;4.36;74.36;98833.31;6244236;23;20046;-64
2022/04/11 15:51:29;;;;;;;8.57;5.13;;;;;;;4.34;74.51;98822.63;6244973;22;20448;-63
2022/04/11 15:53:56;;;;;;;9.55;4.07;;;;;;;4.32;74.43;98827.59;6245011;22;20031;-65
2022/04/11 15:56:23;;;;;;;6.15;4.28;;;;;;;4.29;74.31;98816.41;6244132;22;20023;-64
2022/04/11 15:58:50;;;;;;;10.82;4.22;;;;;;;4.22;74.87;98827.00;6244396;22;20026;-64
2022/04/11 16:01:17;;;;;;;6.38;3.47;;;;;;;4.17;74.69;98851.91;6244986;23;20031;-64
2022/04/11 16:03:46;;;;;;;6.40;4.47;;;;;;;4.09;74.88;98858.13;6244903;22;20089;-63
2022/04/11 16:06:13;;;;;;;9.48;5.05;;;;;;;4.08;74.78;98871.06;6244520;22;20031;-63
2022/04/11 16:08:41;;;;;;;9.35;4.88;;;;;;;4.17;75.20;98869.22;6244295;23;20020;-63
2022/04/11 16:11:08;;;;;;;6.97;4.82;;;;;;;4.28;74.08;98881.66;6245216;22;20309;-63
2022/04/11 16:13:37;;;;;;;6.90;4.72;;;;;;;4.35;74.48;98876.53;6244381;23;20066;-64
2022/04/11 16:16:05;;;;;;;6.55;4.60;;;;;;;4.36;74.25;98893.88;6244650;22;20024;-64
2022/04/11 16:18:32;;;;;;;12.65;4.40;;;;;;;4.28;74.51;98902.84;6244893;23;20349;-62
2022/04/11 16:20:59;;;;;;;10.48;4.28;;;;;;;4.12;75.06;98901.56;6244300;22;20016;-64
2022/04/11 16:23:25;;;;;;;80.20;26.10;;;;;;;4.07;75.01;98896.97;6243149;23;20644;-65
2022/04/11 16:25:53;;;;;;;8.93;5.05;;;;;;;4.01;75.10;98903.69;6244850;22;20028;-65
2022/04/11 16:28:20;;;;;;;7.57;4.70;;;;;;;4.04;75.17;98900.34;6244614;22;20360;-65
2022/04/11 16:30:47;;;;;;;7.38;4.53;;;;;;;4.12;74.86;98902.38;6245110;22;20379;-63
2022/04/11 16:33:13;;;;;;;7.50;4.85;;;;;;;4.18;74.86;98897.56;6244217;23;20064;-64
2022/04/11 16:35:40;;;;;;;5.32;3.72;;;;;;;4.10;74.27;98901.84;6244847;22;20345;-64
2022/04/11 16:38:07;;;;;;;8.10;4.68;;;;;;;4.03;74.71;98908.91;6244502;22;20020;-65
2022/04/11 16:40:34;;;;;;;6.22;4.07;;;;;;;4.05;74.46;98901.94;6244845;23;20020;-64
2022/04/11 16:43:01;;;;;;;6.80;4.72;;;;;;;4.05;74.73;98903.91;6244480;22;20024;-64
2022/04/11 16:45:32;;;;;;;7.18;4.90;;;;;;;4.08;74.49;98906.84;6244134;23;20030;-63
2022/04/11 16:48:00;;;;;;;10.07;4.95;;;;;;;4.07;74.75;98913.47;6243921;22;20107;-65
2022/04/11 16:50:26;;;;;;;9.13;6.05;;;;;;;4.10;74.56;98912.88;6244709;22;20028;-65
2022/04/11 16:52:53;;;;;;;8.55;5.57;;;;;;;4.17;74.35;98907.75;6244199;22;20030;-65
2022/04/11 16:55:22;;;;;;;14.73;6.03;;;;;;;4.23;74.47;98911.25;6244260;22;20024;-64
2022/04/11 16:57:48;;;;;;;16.88;7.65;;;;;;;4.19;74.48;98913.78;6243862;22;20028;-63
2022/04/11 17:00:16;;;;;;;7.53;5.60;;;;;;;4.12;74.19;98899.63;6244559;22;20342;-63
2022/04/11 17:02:43;;;;;;;13.25;7.68;;;;;;;4.15;74.39;98900.94;6244672;22;20451;-68
2022/04/11 17:05:10;;;;;;;10.05;7.07;;;;;;;4.23;74.16;98911.25;6244404;22;20028;-66
2022/04/11 17:07:37;;;;;;;9.73;5.70;;;;;;;4.13;74.68;98909.50;6244181;23;20055;-67
2022/04/11 17:10:05;;;;;;;10.52;6.88;;;;;;;4.15;74.54;98910.03;6244438;22;20028;-68
2022/04/11 17:12:32;;;;;;;10.23;6.95;;;;;;;4.19;74.57;98922.03;6244393;23;20327;-67
2022/04/11 17:14:59;;;;;;;8.50;5.10;;;;;;;4.17;74.34;98923.47;6244872;23;20028;-66
2022/04/11 17:20:11;;;;;;;8.90;5.45;;;;;;;4.28;74.48;98942.22;6246127;23;20451;-67
2022/04/11 17:22:38;;;;;;;10.27;5.53;;;;;;;4.33;74.34;98933.88;6246657;22;20102;-67
2022/04/11 17:25:06;;;;;;;12.30;5.40;;;;;;;4.33;74.01;98920.09;6245874;22;20034;-68
2022/04/11 17:27:33;;;;;;;8.30;5.72;;;;;;;4.31;73.82;98902.25;6246500;23;20024;-69
2022/04/11 17:30:00;;;;;;;9.40;5.82;;;;;;;4.33;73.91;98905.50;6244773;23;20016;-68
2022/04/11 17:32:28;;;;;;;7.32;4.90;;;;;;;4.33;74.34;98900.00;6245797;22;20502;-68
2022/04/11 17:34:55;;;;;;;7.82;4.00;;;;;;;4.33;73.76;98900.84;6245402;23;20020;-68
2022/04/11 17:37:22;;;;;;;9.27;5.18;;;;;;;4.24;73.73;98899.94;6246680;22;20031;-68
2022/04/11 17:39:49;;;;;;;7.47;5.13;;;;;;;4.24;73.85;98905.44;6245660;23;20027;-68
2022/04/11 17:42:16;;;;;;;9.77;5.32;;;;;;;4.22;74.00;98910.41;6246006;22;20028;-67
2022/04/11 17:44:43;;;;;;;12.18;5.88;;;;;;;4.21;73.68;98903.28;6245208;22;20459;-67
2022/04/11 17:47:10;;;;;;;10.40;5.18;;;;;;;4.22;73.46;98921.44;6245601;22;20031;-68
2022/04/11 17:49:37;;;;;;;8.32;4.80;;;;;;;4.28;74.22;98922.94;6245505;22;20024;-67
2022/04/11 17:52:05;;;;;;;8.93;4.80;;;;;;;4.26;73.60;98930.69;6245510;22;20020;-68
2022/04/11 17:54:33;;;;;;;8.32;4.38;;;;;;;4.08;73.83;98909.59;6246111;22;20028;-66
2022/04/11 17:57:00;;;;;;;8.52;4.63;;;;;;;3.93;74.39;98915.41;6245871;22;20024;-66
2022/04/11 17:59:29;;;;;;;8.88;5.30;;;;;;;3.94;74.33;98924.47;6244889;23;20020;-67
2022/04/11 18:01:56;;;;;;;10.20;6.03;;;;;;;3.98;74.60;98926.31;6244866;22;20023;-66
2022/04/11 18:04:23;;;;;;;6.70;4.95;;;;;;;3.98;74.25;98934.56;6245184;22;20451;-67
2022/04/11 18:06:50;;;;;;;9.98;5.22;;;;;;;3.93;74.65;98948.41;6245171;22;20024;-62
2022/04/11 18:09:19;;;;;;;9.57;5.15;;;;;;;3.86;75.16;98961.75;6245404;22;20325;-65
2022/04/11 18:11:49;;;;;;;8.35;5.43;;;;;;;3.68;74.42;98926.88;6245084;23;20095;-66
2022/04/11 18:14:16;;;;;;;;;;;;;;;3.91;74.69;98977.38;6247381;23;20045;-65
2022/04/11 18:16:44;;;;;;;9.18;5.97;;;;;;;4.04;73.73;98988.38;6245554;22;19951;-64
2022/04/11 18:19:11;;;;;;;9.13;5.22;;;;;;;4.08;74.03;98983.91;6215162;23;20433;-63
2022/04/11 18:21:40;;;;;;;7.55;4.80;;;;;;;4.13;73.76;98983.00;6215679;23;20031;-67
2022/04/11 18:24:10;;;;;;;10.55;5.70;;;;;;;4.00;73.78;98975.53;6214816;23;20475;-63
2022/04/11 18:26:37;;;;;;;10.38;5.97;;;;;;;4.01;74.24;98968.91;6214633;23;20535;-63
2022/04/11 18:31:49;;;;;;;14.77;6.30;;;;;;;4.11;74.38;98964.03;6213491;23;20020;-65
2022/04/11 18:34:16;;;;;;;10.60;6.57;;;;;;;4.17;74.03;98979.31;6213217;23;20024;-64
2022/04/11 18:36:43;;;;;;;10.25;6.78;;;;;;;4.22;73.86;98970.97;6213967;23;20321;-67
2022/04/11 18:39:10;;;;;;;11.75;6.88;;;;;;;4.20;73.33;98964.94;6215030;23;20020;-70
2022/04/11 18:41:37;;;;;;;11.05;6.45;;;;;;;4.23;73.34;98972.59;6214587;23;20030;-70
2022/04/11 18:44:05;;;;;;;11.35;6.50;;;;;;;4.21;73.60;98969.34;6215075;23;20337;-70
2022/04/11 18:46:35;;;;;;;9.43;5.90;;;;;;;4.14;73.68;98968.91;6214324;23;20352;-70
2022/04/11 18:49:03;;;;;;;10.50;6.55;;;;;;;4.07;74.12;98971.28;6214921;23;20403;-64
2022/04/11 18:51:30;;;;;;;11.93;6.95;;;;;;;4.09;74.02;98970.97;6214766;23;20020;-64
2022/04/11 18:53:57;;;;;;;13.63;7.15;;;;;;;4.14;73.71;98973.63;6214831;23;20029;-62
2022/04/11 18:56:24;;;;;;;10.55;6.80;;;;;;;4.17;74.13;98984.81;6215066;23;20295;-63
2022/04/11 18:58:51;;;;;;;17.88;7.85;;;;;;;4.19;73.41;98979.84;6213622;23;20042;-64
2022/04/11 19:01:19;;;;;;;12.38;7.53;;;;;;;4.25;73.79;98991.56;6214270;23;20024;-64
2022/04/11 19:03:47;;;;;;;11.95;7.25;;;;;;;4.25;73.47;98989.63;6215437;23;20456;-64
2022/04/11 19:06:15;;;;;;;14.27;7.68;;;;;;;4.23;73.41;98978.09;6214663;23;20047;-72
2022/04/11 19:08:45;;;;;;;11.40;6.70;;;;;;;4.22;73.64;98968.22;6214342;23;20338;-63
2022/04/11 19:11:12;;;;;;;12.63;7.10;;;;;;;4.28;73.34;98958.75;6214750;23;20024;-67
2022/04/11 19:13:39;;;;;;;11.68;7.07;;;;;;;4.28;73.53;98955.16;6214556;23;20057;-67
2022/04/11 19:16:11;;;;;;;12.50;7.20;;;;;;;4.24;73.41;98951.41;6215366;23;20035;-67
2022/04/11 19:18:39;;;;;;;11.57;7.00;;;;;;;4.26;72.98;98938.94;6214227;23;20066;-65
2022/04/11 19:21:06;;;;;;;15.60;7.63;;;;;;;4.23;73.56;98923.06;6214339;23;20024;-63
2022/04/11 19:23:35;;;;;;;11.38;6.68;;;;;;;4.24;73.55;98921.94;6213019;23;20031;-64
2022/04/11 19:26:03;;;;;;;10.95;6.78;;;;;;;4.10;73.63;98912.88;6214857;23;20321;-64
2022/04/11 19:28:31;;;;;;;11.40;7.35;;;;;;;4.11;73.52;98914.50;6212933;23;20107;-64
2022/04/11 19:30:58;;;;;;;12.30;6.68;;;;;;;4.10;73.69;98923.06;6214999;23;20024;-64
2022/04/11 19:33:25;;;;;;;12.95;7.25;;;;;;;4.07;73.43;98905.22;6211627;23;20119;-64
2022/04/11 19:35:53;;;;;;;12.55;6.65;;;;;;;4.13;73.27;98901.25;6214279;23;20031;-65
2022/04/11 19:38:20;;;;;;;14.50;7.78;;;;;;;4.09;73.69;98925.00;6214455;23;20459;-63
2022/04/11 19:40:48;;;;;;;10.07;5.75;;;;;;;3.98;73.68;98940.06;6214604;23;20031;-63
2022/04/11 19:43:15;;;;;;;13.02;7.25;;;;;;;3.82;74.06;98937.91;6215411;23;20507;-62
2022/04/11 19:45:42;;;;;;;15.52;6.93;;;;;;;3.70;74.00;98952.13;6214373;23;20107;-63
2022/04/11 19:50:55;;;;;;;18.30;7.32;;;;;;;3.74;74.39;98969.69;6214559;23;20107;-64
2022/04/11 19:53:22;;;;;;;15.27;7.43;;;;;;;3.87;74.05;98985.41;6213009;23;20043;-63
2022/04/11 19:55:49;;;;;;;14.90;7.43;;;;;;;3.95;73.85;99003.13;6215326;23;20024;-65
2022/04/11 19:58:16;;;;;;;8.85;5.68;;;;;;;3.97;73.55;99023.75;6214478;23;20522;-65
2022/04/11 20:00:43;;;;;;;11.07;6.90;;;;;;;3.91;73.86;99038.72;6213563;23;20356;-63
2022/04/11 20:03:10;;;;;;;29.33;13.18;;;;;;;3.89;73.94;99043.69;6214814;23;20017;-63
2022/04/11 20:05:37;;;;;;;15.10;8.80;;;;;;;4.00;73.91;99025.91;6214849;23;20456;-64
2022/04/11 20:08:05;;;;;;;12.15;6.95;;;;;;;3.99;74.00;99004.19;6213085;23;20035;-64
2022/04/11 20:10:33;;;;;;;11.88;6.13;;;;;;;3.92;73.86;99018.34;6214791;23;20024;-63
2022/04/11 20:13:00;;;;;;;10.55;6.07;;;;;;;3.83;74.24;99008.31;6214312;23;20330;-64
2022/04/11 20:15:29;;;;;;;11.35;6.80;;;;;;;3.75;74.45;98998.81;6214785;23;20027;-64
2022/04/11 20:17:56;;;;;;;11.20;6.75;;;;;;;3.77;74.60;98996.59;6214098;23;20079;-64
2022/04/11 20:20:23;;;;;;;10.23;6.65;;;;;;;3.86;74.14;98988.44;6214430;23;20029;-63
2022/04/11 20:22:50;;;;;;;16.63;6.75;;;;;;;3.92;74.02;99001.81;6214933;23;20440;-64
2022/04/11 20:25:18;;;;;;;10.70;5.95;;;;;;;3.88;74.34;99008.22;6214600;23;20047;-64
2022/04/11 20:27:51;;;;;;;12.32;6.18;;;;;;;3.82;74.48;98999.22;6214798;23;20047;-63
2022/04/11 20:30:18;;;;;;;11.02;6.45;;;;;;;3.87;74.34;98976.34;6214517;23;20043;-64
2022/04/11 20:32:45;;;;;;;8.90;5.40;;;;;;;3.83;74.25;98965.91;6215086;23;20027;-64
2022/04/11 20:35:15;;;;;;;11.00;6.82;;;;;;;3.83;74.53;98970.63;6214256;23;20025;-64
2022/04/11 20:37:42;;;;;;;10.15;6.53;;;;;;;3.86;74.60;98966.44;6214753;23;20373;-64
2022/04/11 20:40:09;;;;;;;9.13;4.47;;;;;;;3.88;73.96;98959.53;6214519;23;20028;-64
2022/04/11 20:42:36;;;;;;;11.65;5.70;;;;;;;3.82;73.98;98954.44;6214677;23;20424;-63
2022/04/11 20:45:04;;;;;;;7.78;4.78;;;;;;;3.72;74.15;98956.25;6215216;23;20044;-64
2022/04/11 20:47:30;;;;;;;14.60;5.35;;;;;;;3.65;74.73;98974.25;6214681;23;20048;-65
2022/04/11 20:49:57;;;;;;;11.48;6.32;;;;;;;3.68;74.54;98979.16;6214891;23;20031;-64
2022/04/11 20:52:24;;;;;;;6.93;4.63;;;;;;;3.64;74.73;98981.66;6215735;23;20021;-72
2022/04/11 20:57:38;;;;;;;10.60;5.57;;;;;;;3.61;74.75;98970.44;6216272;23;20020;-72
2022/04/11 21:00:07;;;;;;;10.80;6.28;;;;;;;3.57;74.68;98972.19;6214661;23;20070;-72
2022/04/11 21:02:35;;;;;;;10.23;7.15;;;;;;;3.58;74.70;98968.31;6216695;23;20048;-72
2022/04/11 21:05:02;;;;;;;15.40;7.95;;;;;;;3.63;74.58;98958.06;6216037;23;20021;-72
2022/04/11 21:07:29;;;;;;;11.65;6.40;;;;;;;3.62;74.89;98945.41;6216235;23;20035;-71
2022/04/11 21:09:56;;;;;;;10.68;6.28;;;;;;;3.46;75.23;98949.53;6216460;23;20025;-72
2022/04/11 21:12:23;;;;;;;9.32;5.45;;;;;;;3.44;75.39;98942.72;6216007;23;20032;-73
2022/04/11 21:14:50;;;;;;;9.90;6.03;;;;;;;3.37;75.65;98931.28;6216405;23;20490;-72
2022/04/11 21:17:18;;;;;;;7.40;4.28;;;;;;;3.25;75.74;98944.66;6216463;23;20039;-71
2022/04/11 21:19:45;;;;;;;8.50;5.18;;;;;;;3.14;76.04;98973.44;6215314;23;20052;-71
2022/04/11 21:22:12;;;;;;;8.23;5.20;;;;;;;3.25;75.84;98988.66;6216352;23;20466;-70
2022/04/11 21:24:39;;;;;;;10.10;5.57;;;;;;;3.38;75.58;98988.69;6216292;23;20031;-71
2022/04/11 21:27:06;;;;;;;7.22;4.50;;;;;;;3.45;75.47;98960.84;6214301;23;20034;-71
2022/04/11 21:29:34;;;;;;;8.82;5.32;;;;;;;3.46;75.57;98945.97;6217427;23;20027;-71
2022/04/11 21:32:02;;;;;;;9.75;6.35;;;;;;;3.53;75.03;98951.91;6215975;23;20451;-71
2022/04/11 21:34:29;;;;;;;8.35;4.07;;;;;;;3.54;75.02;98968.09;6216988;23;20391;-71
2022/04/11 21:36:56;;;;;;;6.85;4.35;;;;;;;3.46;75.72;98973.47;6215750;23;20020;-71
2022/04/11 21:39:23;;;;;;;6.95;4.32;;;;;;;3.47;75.65;98964.13;6216377;23;20046;-72
2022/04/11 21:41:54;;;;;;;5.35;3.92;;;;;;;3.45;75.53;98956.16;6215173;23;20024;-71
2022/04/11 21:44:22;;;;;;;8.25;3.75;;;;;;;3.53;75.29;98938.16;6215898;23;20115;-71
2022/04/11 21:46:50;;;;;;;6.05;3.10;;;;;;;3.55;75.43;98911.16;6215624;23;20027;-71
2022/04/11 21:49:17;;;;;;;6.28;4.07;;;;;;;3.44;75.30;98904.22;6215959;23;20032;-72
2022/04/11 21:51:45;;;;;;;7.20;4.43;;;;;;;3.45;75.39;98916.84;6215177;23;20028;-71
2022/04/11 21:54:12;;;;;;;6.88;4.32;;;;;;;3.56;75.32;98918.31;6216958;23;20111;-72
2022/04/11 21:56:40;;;;;;;6.93;4.15;;;;;;;3.60;75.47;98916.56;6214267;23;20033;-70
2022/04/11 21:59:08;;;;;;;6.63;3.92;;;;;;;3.55;75.25;98927.66;6215639;23;20020;-71
2022/04/11 22:01:36;;;;;;;6.82;4.00;;;;;;;3.61;75.36;98929.19;6215575;23;20028;-71
2022/04/11 22:04:05;;;;;;;8.57;4.28;;;;;;;3.70;75.32;98924.63;6215342;23;20035;-71
2022/04/11 22:06:33;;;;;;;8.90;4.18;;;;;;;3.77;75.17;98931.38;6215302;23;20042;-72
2022/04/11 22:09:00;;;;;;;7.35;4.38;;;;;;;3.79;74.84;98933.81;6216026;23;20024;-71
2022/04/11 22:11:27;;;;;;;8.43;4.60;;;;;;;3.83;74.65;98929.38;6216208;23;20111;-71
2022/04/11 22:13:55;;;;;;;7.07;4.65;;;;;;;3.92;74.84;98946.78;6215149;23;20024;-71
2022/04/11 22:16:22;;;;;;;8.80;4.80;;;;;;;3.93;74.87;98956.66;6216606;23;20050;-70
2022/04/11 22:18:49;;;;;;;7.50;5.05;;;;;;;3.96;74.80;98964.31;6215639;23;20032;-72
2022/04/11 22:21:18;;;;;;;7.95;4.95;;;;;;;4.04;74.55;98960.03;6215986;23;20024;-70
2022/04/11 22:23:47;;;;;;;8.00;4.95;;;;;;;4.02;74.44;98968.59;6215667;23;20020;-71
2022/04/11 22:26:15;;;;;;;7.97;4.80;;;;;;;3.92;74.86;98971.56;6214523;23;20087;-70
2022/04/11 22:28:43;;;;;;;9.32;4.50;;;;;;;3.76;74.99;98964.69;6215537;23;20111;-70
2022/04/11 22:31:11;;;;;;;7.75;4.35;;;;;;;3.73;75.34;98963.38;6214915;23;20028;-71
2022/04/11 22:33:39;;;;;;;8.52;4.65;;;;;;;3.65;75.56;98963.25;6215683;23;20044;-71
2022/04/11 22:36:07;;;;;;;9.82;4.85;;;;;;;3.67;75.50;98952.75;6216695;23;20099;-71
2022/04/11 22:38:34;;;;;;;6.93;4.53;;;;;;;3.63;75.38;98940.72;6215149;23;20028;-71
2022/04/11 22:41:02;;;;;;;8.05;4.55;;;;;;;3.70;75.09;98935.63;6215784;23;20031;-70
2022/04/11 22:43:29;;;;;;;7.20;3.95;;;;;;;3.81;75.43;98942.59;6215515;23;20025;-70
2022/04/11 22:45:56;;;;;;;7.07;4.10;;;;;;;3.88;75.22;98942.19;6215398;23;20024;-68
2022/04/11 22:48:24;;;;;;;6.15;3.95;;;;;;;3.86;74.96;98934.25;6214904;23;20035;-68
2022/04/11 22:50:50;;;;;;;5.88;3.60;;;;;;;3.87;75.15;98943.34;6216560;23;20027;-69
2022/04/11 22:53:17;;;;;;;5.65;3.25;;;;;;;3.77;74.88;98941.56;6215321;23;20047;-69
2022/04/11 22:55:45;;;;;;;5.03;3.17;;;;;;;3.81;75.08;98937.09;6215649;23;20413;-69
2022/04/11 22:58:13;;;;;;;4.97;3.20;;;;;;;3.86;74.68;98934.25;6215541;23;20028;-69
2022/04/11 23:00:41;;;;;;;4.35;2.90;;;;;;;3.86;74.62;98927.94;6214837;23;20024;-69
2022/04/11 23:03:10;;;;;;;3.70;2.58;;;;;;;3.86;75.23;98920.50;6214300;23;20029;-68
2022/04/11 23:05:37;;;;;;;4.22;2.70;;;;;;;3.82;74.77;98916.69;6215147;23;20111;-69
2022/04/11 23:08:05;;;;;;;4.60;2.50;;;;;;;3.84;74.68;98906.22;6215350;23;20490;-69
2022/04/11 23:10:32;;;;;;;3.97;2.45;;;;;;;3.85;74.58;98907.88;6189742;23;20024;-69
2022/04/11 23:13:04;;;;;;;4.22;2.85;;;;;;;3.87;74.49;98894.63;6215114;23;20025;-69
2022/04/11 23:15:31;;;;;;;3.72;2.08;;;;;;;3.88;74.51;98888.00;6214405;23;20071;-70
2022/04/11 23:17:58;;;;;;;3.72;2.33;;;;;;;3.85;74.51;98894.13;6215387;23;20024;-68
2022/04/11 23:20:25;;;;;;;5.13;2.80;;;;;;;3.87;74.39;98902.88;6213764;23;20102;-69
2022/04/11 23:22:52;;;;;;;3.72;2.20;;;;;;;3.86;74.70;98895.75;6214217;23;20032;-69
2022/04/11 23:25:19;;;;;;;3.78;2.35;;;;;;;3.83;74.29;98894.41;6215021;23;20348;-69
2022/04/11 23:27:46;;;;;;;10.68;4.75;;;;;;;3.85;74.50;98904.31;6215519;23;20453;-69
2022/04/11 23:30:14;;;;;;;3.75;2.17;;;;;;;3.85;74.47;98894.13;6215982;23;20024;-69
2022/04/11 23:32:41;;;;;;;2.95;1.92;;;;;;;3.83;74.23;98881.78;6213901;23;20024;-68
2022/04/11 23:35:09;;;;;;;3.60;1.95;;;;;;;3.78;74.25;98878.00;6215093;23;20027;-68
2022/04/11 23:37:37;;;;;;;3.55;1.83;;;;;;;3.83;74.49;98879.84;6215276;23;20340;-69
2022/04/11 23:43:02;;;;;;;2.75;1.67;;;;;;;3.70;74.77;98891.63;6191364;23;20353;-69
2022/04/11 23:45:30;;;;;;;3.22;1.65;;;;;;;3.79;74.79;98904.38;6214552;23;20020;-69
2022/04/11 23:47:57;;;;;;;2.63;1.70;;;;;;;3.89;74.45;98917.13;6213988;23;20445;-69
2022/04/11 23:50:24;;;;;;;3.53;1.73;;;;;;;3.87;74.35;98918.56;6214394;23;20021;-63
2022/04/11 23:52:51;;;;;;;2.58;1.70;;;;;;;3.76;74.19;98913.25;6214845;23;20021;-63
2022/04/11 23:55:18;;;;;;;2.13;1.60;;;;;;;3.76;74.29;98898.66;6214478;23;20031;-64
2022/04/11 23:57:45;;;;;;;2.15;1.50;;;;;;;3.82;74.57;98893.91;6214982;23;20024;-64
